sensor_id;sensor_type;location;lat;lon;timestamp;pressure;altitude;pressure_sealevel;temperature;humidity
78014;BME280;67222;50.182;8.734;2023-04-03T04:31:08;101667.06;;;2.79;70.88
78014;BME280;67222;50.182;8.734;2023-04-03T04:33:33;101673.06;;;2.92;72.74
78014;BME280;67222;50.182;8.734;2023-04-03T04:35:59;101670.69;;;2.78;72.10
78014;BME280;67222;50.182;8.734;2023-04-03T04:38:24;101670.59;;;2.68;72.50
78014;BME280;67222;50.182;8.734;2023-04-03T04:40:49;101669.41;;;2.61;73.84
78014;BME280;67222;50.182;8.734;2023-04-03T04:43:16;101684.50;;;2.48;71.81
78014;BME280;67222;50.182;8.734;2023-04-03T04:45:42;101677.81;;;2.43;72.19
78014;BME280;67222;50.182;8.734;2023-04-03T04:48:07;101678.13;;;2.39;72.49
78014;BME280;67222;50.182;8.734;2023-04-03T04:50:32;101675.16;;;2.32;72.05
78014;BME280;67222;50.182;8.734;2023-04-03T04:52:58;101674.94;;;2.24;72.16
78014;BME280;67222;50.182;8.734;2023-04-03T04:55:23;101678.50;;;2.34;72.63
78014;BME280;67222;50.182;8.734;2023-04-03T04:57:49;101673.94;;;2.36;72.77
78014;BME280;67222;50.182;8.734;2023-04-03T05:00:15;101680.75;;;2.39;74.55
78014;BME280;67222;50.182;8.734;2023-04-03T05:02:40;101679.22;;;2.25;73.13
78014;BME280;67222;50.182;8.734;2023-04-03T05:05:06;101697.28;;;2.19;72.98
78014;BME280;67222;50.182;8.734;2023-04-03T05:07:32;101693.56;;;2.10;73.02
78014;BME280;67222;50.182;8.734;2023-04-03T05:09:57;101696.88;;;2.01;73.78
78014;BME280;67222;50.182;8.734;2023-04-03T05:12:23;101699.88;;;1.96;74.22
78014;BME280;67222;50.182;8.734;2023-04-03T05:14:48;101697.34;;;1.95;74.18
78014;BME280;67222;50.182;8.734;2023-04-03T05:17:14;101703.81;;;1.91;74.58
78014;BME280;67222;50.182;8.734;2023-04-03T05:19:39;101707.03;;;1.94;75.09
78014;BME280;67222;50.182;8.734;2023-04-03T05:22:04;101712.53;;;1.91;75.06
78014;BME280;67222;50.182;8.734;2023-04-03T05:24:30;101717.56;;;1.94;75.69
78014;BME280;67222;50.182;8.734;2023-04-03T05:26:55;101721.28;;;2.03;76.23
78014;BME280;67222;50.182;8.734;2023-04-03T05:29:21;101722.34;;;2.00;75.43
78014;BME280;67222;50.182;8.734;2023-04-03T05:31:49;101717.69;;;1.93;75.39
78014;BME280;67222;50.182;8.734;2023-04-03T05:34:15;101723.75;;;1.82;74.38
78014;BME280;67222;50.182;8.734;2023-04-03T05:36:40;101719.53;;;1.68;75.88
78014;BME280;67222;50.182;8.734;2023-04-03T05:39:07;101722.25;;;1.67;75.72
78014;BME280;67222;50.182;8.734;2023-04-03T05:41:32;101726.66;;;1.66;75.94
78014;BME280;67222;50.182;8.734;2023-04-03T05:43:57;101725.47;;;1.59;76.13
78014;BME280;67222;50.182;8.734;2023-04-03T05:46:23;101728.09;;;1.59;76.05
78014;BME280;67222;50.182;8.734;2023-04-03T05:48:48;101727.41;;;1.68;77.75
78014;BME280;67222;50.182;8.734;2023-04-03T05:51:24;101729.72;;;1.73;76.13
78014;BME280;67222;50.182;8.734;2023-04-03T05:53:58;101728.88;;;1.72;76.98
78014;BME280;67222;50.182;8.734;2023-04-03T05:56:25;101739.03;;;1.77;77.52
78014;BME280;67222;50.182;8.734;2023-04-03T05:58:51;101737.84;;;1.81;75.90
78014;BME280;67222;50.182;8.734;2023-04-03T06:01:16;101740.13;;;1.86;75.96
78014;BME280;67222;50.182;8.734;2023-04-03T06:03:42;101743.94;;;1.81;76.24
78014;BME280;67222;50.182;8.734;2023-04-03T06:06:07;101742.44;;;1.90;76.46
78014;BME280;67222;50.182;8.734;2023-04-03T06:08:33;101749.81;;;1.85;75.60
78014;BME280;67222;50.182;8.734;2023-04-03T06:10:59;101747.69;;;1.90;75.38
78014;BME280;67222;50.182;8.734;2023-04-03T06:13:24;101748.53;;;1.91;75.05
78014;BME280;67222;50.182;8.734;2023-04-03T06:15:50;101752.94;;;1.90;75.82
78014;BME280;67222;50.182;8.734;2023-04-03T06:18:15;101750.81;;;1.95;75.80
78014;BME280;67222;50.182;8.734;2023-04-03T06:20:40;101756.22;;;2.05;74.90
78014;BME280;67222;50.182;8.734;2023-04-03T06:23:06;101764.72;;;2.20;76.09
78014;BME280;67222;50.182;8.734;2023-04-03T06:25:31;101765.44;;;2.22;74.83
78014;BME280;67222;50.182;8.734;2023-04-03T06:27:57;101770.00;;;2.20;75.50
78014;BME280;67222;50.182;8.734;2023-04-03T06:30:22;101773.50;;;2.31;75.79
78014;BME280;67222;50.182;8.734;2023-04-03T06:32:47;101770.06;;;2.42;74.49
78014;BME280;67222;50.182;8.734;2023-04-03T06:35:13;101770.78;;;2.44;73.22
78014;BME280;67222;50.182;8.734;2023-04-03T06:37:38;101774.59;;;2.51;73.48
78014;BME280;67222;50.182;8.734;2023-04-03T06:40:04;101780.94;;;2.60;74.80
78014;BME280;67222;50.182;8.734;2023-04-03T06:42:29;101780.22;;;2.69;74.71
78014;BME280;67222;50.182;8.734;2023-04-03T06:44:55;101782.63;;;2.72;73.87
78014;BME280;67222;50.182;8.734;2023-04-03T06:47:20;101787.41;;;2.67;72.13
78014;BME280;67222;50.182;8.734;2023-04-03T06:49:45;101792.22;;;2.84;73.64
78014;BME280;67222;50.182;8.734;2023-04-03T06:52:11;101784.66;;;2.91;73.31
78014;BME280;67222;50.182;8.734;2023-04-03T06:54:37;101801.78;;;2.96;72.69
78014;BME280;67222;50.182;8.734;2023-04-03T06:57:03;101795.44;;;2.88;71.13
78014;BME280;67222;50.182;8.734;2023-04-03T06:59:28;101795.06;;;2.92;72.63
78014;BME280;67222;50.182;8.734;2023-04-03T07:01:54;101799.13;;;2.96;71.99
78014;BME280;67222;50.182;8.734;2023-04-03T07:04:19;101805.25;;;3.08;72.81
78014;BME280;67222;50.182;8.734;2023-04-03T07:06:47;101798.19;;;3.09;70.12
78014;BME280;67222;50.182;8.734;2023-04-03T07:09:14;101813.03;;;3.10;70.13
78014;BME280;67222;50.182;8.734;2023-04-03T07:11:39;101813.50;;;3.26;72.16
78014;BME280;67222;50.182;8.734;2023-04-03T07:14:05;101812.06;;;3.22;71.54
78014;BME280;67222;50.182;8.734;2023-04-03T07:16:33;101813.75;;;3.23;70.30
78014;BME280;67222;50.182;8.734;2023-04-03T07:18:58;101816.97;;;3.26;70.81
78014;BME280;67222;50.182;8.734;2023-04-03T07:21:24;101817.53;;;3.41;70.90
78014;BME280;67222;50.182;8.734;2023-04-03T07:23:49;101824.00;;;3.48;70.93
78014;BME280;67222;50.182;8.734;2023-04-03T07:26:15;101824.34;;;3.55;70.43
78014;BME280;67222;50.182;8.734;2023-04-03T07:28:40;101831.50;;;3.64;69.92
78014;BME280;67222;50.182;8.734;2023-04-03T07:31:09;101837.34;;;3.79;70.51
78014;BME280;67222;50.182;8.734;2023-04-03T07:33:37;101838.25;;;3.89;70.94
78014;BME280;67222;50.182;8.734;2023-04-03T07:36:04;101834.75;;;4.00;69.56
78014;BME280;67222;50.182;8.734;2023-04-03T07:38:30;101829.88;;;4.16;68.36
78014;BME280;67222;50.182;8.734;2023-04-03T07:40:55;101832.34;;;4.29;68.13
78014;BME280;67222;50.182;8.734;2023-04-03T07:43:22;101837.81;;;4.37;67.19
78014;BME280;67222;50.182;8.734;2023-04-03T07:45:49;101835.28;;;4.56;65.71
78014;BME280;67222;50.182;8.734;2023-04-03T07:48:20;101836.53;;;4.52;63.70
78014;BME280;67222;50.182;8.734;2023-04-03T07:50:46;101833.22;;;4.60;64.19
78014;BME280;67222;50.182;8.734;2023-04-03T07:53:11;101839.88;;;4.54;63.48
78014;BME280;67222;50.182;8.734;2023-04-03T07:55:37;101836.09;;;4.77;64.76
78014;BME280;67222;50.182;8.734;2023-04-03T07:58:09;101839.91;;;4.84;65.03
78014;BME280;67222;50.182;8.734;2023-04-03T08:00:34;101829.94;;;4.98;65.39
78014;BME280;67222;50.182;8.734;2023-04-03T08:03:00;101829.59;;;5.12;65.14
78014;BME280;67222;50.182;8.734;2023-04-03T08:05:26;101825.69;;;5.16;64.25
78014;BME280;67222;50.182;8.734;2023-04-03T08:07:51;101839.94;;;5.25;61.85
78014;BME280;67222;50.182;8.734;2023-04-03T08:10:17;101834.09;;;5.31;63.28
78014;BME280;67222;50.182;8.734;2023-04-03T08:12:46;101833.66;;;5.26;62.10
78014;BME280;67222;50.182;8.734;2023-04-03T08:15:11;101825.56;;;5.17;62.57
78014;BME280;67222;50.182;8.734;2023-04-03T08:17:36;101826.16;;;5.21;61.97
78014;BME280;67222;50.182;8.734;2023-04-03T08:20:03;101827.91;;;5.11;61.07
78014;BME280;67222;50.182;8.734;2023-04-03T08:22:29;101822.41;;;5.24;63.12
78014;BME280;67222;50.182;8.734;2023-04-03T08:24:55;101822.41;;;5.33;63.20
78014;BME280;67222;50.182;8.734;2023-04-03T08:27:21;101819.34;;;5.28;62.29
78014;BME280;67222;50.182;8.734;2023-04-03T08:29:46;101825.06;;;5.33;61.38
78014;BME280;67222;50.182;8.734;2023-04-03T08:32:11;101835.22;;;5.38;62.70
78014;BME280;67222;50.182;8.734;2023-04-03T08:34:37;101822.31;;;5.44;60.54
78014;BME280;67222;50.182;8.734;2023-04-03T08:37:04;101823.69;;;5.48;61.99
78014;BME280;67222;50.182;8.734;2023-04-03T08:39:30;101819.94;;;5.51;61.56
78014;BME280;67222;50.182;8.734;2023-04-03T08:41:58;101820.22;;;5.58;58.23
78014;BME280;67222;50.182;8.734;2023-04-03T08:47:42;101825.69;;;5.66;60.86
78014;BME280;67222;50.182;8.734;2023-04-03T08:50:15;101825.00;;;5.83;61.76
78014;BME280;67222;50.182;8.734;2023-04-03T08:52:46;101815.28;;;5.93;58.47
78014;BME280;67222;50.182;8.734;2023-04-03T08:55:33;101821.94;;;5.78;57.13
78014;BME280;67222;50.182;8.734;2023-04-03T08:58:05;101839.34;;;5.81;57.42
78014;BME280;67222;50.182;8.734;2023-04-03T09:03:15;101820.03;;;5.99;58.04
78014;BME280;67222;50.182;8.734;2023-04-03T09:05:47;101820.88;;;6.00;56.20
78014;BME280;67222;50.182;8.734;2023-04-03T09:08:29;101829.78;;;5.99;57.23
78014;BME280;67222;50.182;8.734;2023-04-03T09:21:57;101826.28;;;6.27;55.67
78014;BME280;67222;50.182;8.734;2023-04-03T09:24:23;101836.47;;;6.22;54.53
78014;BME280;67222;50.182;8.734;2023-04-03T09:27:01;101827.41;;;6.34;56.18
78014;BME280;67222;50.182;8.734;2023-04-03T09:29:29;101831.97;;;6.42;56.12
78014;BME280;67222;50.182;8.734;2023-04-03T09:32:03;101828.59;;;6.59;57.19
78014;BME280;67222;50.182;8.734;2023-04-03T09:34:37;101822.41;;;6.68;56.50
78014;BME280;67222;50.182;8.734;2023-04-03T09:37:06;101808.16;;;6.79;56.31
78014;BME280;67222;50.182;8.734;2023-04-03T09:39:48;101816.78;;;6.91;56.98
78014;BME280;67222;50.182;8.734;2023-04-03T09:42:19;101818.75;;;6.89;55.07
78014;BME280;67222;50.182;8.734;2023-04-03T09:44:54;101814.97;;;6.91;55.35
78014;BME280;67222;50.182;8.734;2023-04-03T09:47:26;101815.97;;;6.81;55.29
78014;BME280;67222;50.182;8.734;2023-04-03T09:52:45;101820.94;;;6.93;52.82
78014;BME280;67222;50.182;8.734;2023-04-03T09:55:17;101816.94;;;6.89;53.47
78014;BME280;67222;50.182;8.734;2023-04-03T09:57:44;101816.56;;;7.02;54.06
78014;BME280;67222;50.182;8.734;2023-04-03T10:00:33;101814.03;;;7.10;54.57
78014;BME280;67222;50.182;8.734;2023-04-03T10:02:59;101817.53;;;7.11;54.62
78014;BME280;67222;50.182;8.734;2023-04-03T10:07:52;101811.88;;;7.23;52.90
78014;BME280;67222;50.182;8.734;2023-04-03T10:10:31;101819.34;;;7.38;53.84
78014;BME280;67222;50.182;8.734;2023-04-03T10:13:26;101827.56;;;7.44;52.26
78014;BME280;67222;50.182;8.734;2023-04-03T10:15:57;101812.34;;;7.37;52.77
78014;BME280;67222;50.182;8.734;2023-04-03T10:18:39;101819.34;;;7.38;52.57
78014;BME280;67222;50.182;8.734;2023-04-03T10:21:48;101822.94;;;7.46;52.58
78014;BME280;67222;50.182;8.734;2023-04-03T10:27:02;101816.28;;;7.33;52.23
78014;BME280;67222;50.182;8.734;2023-04-03T10:35:16;101812.56;;;7.71;51.01
78014;BME280;67222;50.182;8.734;2023-04-03T10:38:03;101810.66;;;7.99;51.99
78014;BME280;67222;50.182;8.734;2023-04-03T10:46:00;101801.63;;;7.92;50.18
78014;BME280;67222;50.182;8.734;2023-04-03T10:54:20;101798.91;;;8.01;48.44
78014;BME280;67222;50.182;8.734;2023-04-03T10:56:52;101792.22;;;7.97;50.66
78014;BME280;67222;50.182;8.734;2023-04-03T10:59:32;101786.53;;;7.92;48.48
78014;BME280;67222;50.182;8.734;2023-04-03T11:02:06;101785.47;;;8.03;48.38
78014;BME280;67222;50.182;8.734;2023-04-03T11:04:36;101784.00;;;8.52;49.43
78014;BME280;67222;50.182;8.734;2023-04-03T11:07:11;101782.00;;;8.46;45.27
78014;BME280;67222;50.182;8.734;2023-04-03T11:09:44;101781.00;;;8.47;47.25
78014;BME280;67222;50.182;8.734;2023-04-03T11:12:36;101785.38;;;8.90;45.21
78014;BME280;67222;50.182;8.734;2023-04-03T11:15:03;101776.38;;;8.83;44.69
78014;BME280;67222;50.182;8.734;2023-04-03T11:17:39;101763.66;;;9.03;44.72
78014;BME280;67222;50.182;8.734;2023-04-03T11:20:19;101765.56;;;9.27;42.81
78014;BME280;67222;50.182;8.734;2023-04-03T11:22:58;101764.56;;;9.28;44.28
78014;BME280;67222;50.182;8.734;2023-04-03T11:25:27;101751.47;;;9.34;45.77
78014;BME280;67222;50.182;8.734;2023-04-03T11:35:48;101749.00;;;9.82;40.42
78014;BME280;67222;50.182;8.734;2023-04-03T11:38:23;101756.16;;;9.81;41.99
78014;BME280;67222;50.182;8.734;2023-04-03T11:40:51;101758.00;;;9.97;42.26
78014;BME280;67222;50.182;8.734;2023-04-03T11:43:26;101757.47;;;10.18;41.92
78014;BME280;67222;50.182;8.734;2023-04-03T11:45:55;101749.19;;;10.29;41.04
78014;BME280;67222;50.182;8.734;2023-04-03T11:50:52;101760.66;;;10.38;40.98
78014;BME280;67222;50.182;8.734;2023-04-03T11:53:36;101748.66;;;10.42;40.67
78014;BME280;67222;50.182;8.734;2023-04-03T12:04:11;101738.88;;;11.43;39.51
78014;BME280;67222;50.182;8.734;2023-04-03T12:09:22;101738.66;;;11.53;38.10
78014;BME280;67222;50.182;8.734;2023-04-03T12:11:48;101729.72;;;11.61;37.77
78014;BME280;67222;50.182;8.734;2023-04-03T12:14:15;101740.34;;;12.15;39.76
78014;BME280;67222;50.182;8.734;2023-04-03T12:32:46;101722.97;;;14.27;33.87
78014;BME280;67222;50.182;8.734;2023-04-03T12:35:24;101710.13;;;15.59;31.21
78014;BME280;67222;50.182;8.734;2023-04-03T12:46:34;101694.41;;;17.25;28.30
78014;BME280;67222;50.182;8.734;2023-04-03T12:49:00;101706.13;;;17.06;28.09
78014;BME280;67222;50.182;8.734;2023-04-03T12:51:43;101697.06;;;17.95;25.42
78014;BME280;67222;50.182;8.734;2023-04-03T12:54:21;101678.22;;;18.31;25.06
78014;BME280;67222;50.182;8.734;2023-04-03T12:56:47;101691.81;;;18.43;27.58
78014;BME280;67222;50.182;8.734;2023-04-03T12:59:24;101685.44;;;18.74;24.46
78014;BME280;67222;50.182;8.734;2023-04-03T13:01:55;101685.19;;;19.24;23.02
78014;BME280;67222;50.182;8.734;2023-04-03T13:04:21;101675.91;;;19.85;22.87
78014;BME280;67222;50.182;8.734;2023-04-03T13:06:47;101671.31;;;19.32;23.23
78014;BME280;67222;50.182;8.734;2023-04-03T13:09:20;101673.84;;;18.85;23.96
78014;BME280;67222;50.182;8.734;2023-04-03T13:11:50;101668.50;;;17.87;24.06
78014;BME280;67222;50.182;8.734;2023-04-03T13:14:19;101678.69;;;18.03;25.51
78014;BME280;67222;50.182;8.734;2023-04-03T13:16:57;101672.38;;;18.71;25.57
78014;BME280;67222;50.182;8.734;2023-04-03T13:19:25;101671.53;;;18.89;23.54
78014;BME280;67222;50.182;8.734;2023-04-03T13:21:58;101659.56;;;19.91;22.09
78014;BME280;67222;50.182;8.734;2023-04-03T13:24:25;101669.91;;;19.83;22.76
78014;BME280;67222;50.182;8.734;2023-04-03T13:26:51;101670.84;;;19.23;22.22
78014;BME280;67222;50.182;8.734;2023-04-03T13:29:48;101670.34;;;18.30;24.00
78014;BME280;67222;50.182;8.734;2023-04-03T13:32:19;101669.53;;;18.96;23.24
78014;BME280;67222;50.182;8.734;2023-04-03T13:34:45;101668.38;;;18.55;23.85
78014;BME280;67222;50.182;8.734;2023-04-03T13:37:30;101663.34;;;18.40;23.01
78014;BME280;67222;50.182;8.734;2023-04-03T13:42:28;101663.72;;;17.82;24.02
78014;BME280;67222;50.182;8.734;2023-04-03T13:45:22;101674.78;;;17.18;24.65
78014;BME280;67222;50.182;8.734;2023-04-03T13:47:50;101668.34;;;17.50;24.45
78014;BME280;67222;50.182;8.734;2023-04-03T13:50:24;101655.22;;;17.85;24.07
78014;BME280;67222;50.182;8.734;2023-04-03T13:53:00;101655.25;;;18.40;23.73
78014;BME280;67222;50.182;8.734;2023-04-03T13:55:27;101647.53;;;17.82;24.25
78014;BME280;67222;50.182;8.734;2023-04-03T14:00:45;101647.22;;;17.72;23.52
78014;BME280;67222;50.182;8.734;2023-04-03T14:03:28;101640.47;;;18.61;23.27
78014;BME280;67222;50.182;8.734;2023-04-03T14:05:54;101648.38;;;18.93;24.81
78014;BME280;67222;50.182;8.734;2023-04-03T14:08:20;101648.75;;;18.66;22.77
78014;BME280;67222;50.182;8.734;2023-04-03T14:10:48;101643.19;;;17.81;23.47
78014;BME280;67222;50.182;8.734;2023-04-03T14:13:15;101640.44;;;17.88;22.86
78014;BME280;67222;50.182;8.734;2023-04-03T14:15:41;101642.47;;;17.93;23.33
78014;BME280;67222;50.182;8.734;2023-04-03T14:18:11;101640.84;;;18.10;21.63
78014;BME280;67222;50.182;8.734;2023-04-03T14:20:37;101626.66;;;17.46;22.82
78014;BME280;67222;50.182;8.734;2023-04-03T14:23:03;101633.81;;;18.09;23.04
78014;BME280;67222;50.182;8.734;2023-04-03T14:25:29;101624.00;;;17.65;24.45
78014;BME280;67222;50.182;8.734;2023-04-03T14:27:55;101628.31;;;17.47;23.99
78014;BME280;67222;50.182;8.734;2023-04-03T14:30:29;101635.84;;;16.76;23.19
78014;BME280;67222;50.182;8.734;2023-04-03T14:32:55;101633.59;;;17.04;24.17
78014;BME280;67222;50.182;8.734;2023-04-03T14:35:21;101636.00;;;16.16;25.10
78014;BME280;67222;50.182;8.734;2023-04-03T14:37:47;101625.47;;;16.79;26.16
78014;BME280;67222;50.182;8.734;2023-04-03T14:40:17;101623.28;;;17.26;24.50
78014;BME280;67222;50.182;8.734;2023-04-03T14:42:42;101635.81;;;16.11;25.66
78014;BME280;67222;50.182;8.734;2023-04-03T14:45:11;101631.69;;;15.42;26.07
78014;BME280;67222;50.182;8.734;2023-04-03T14:47:46;101635.34;;;14.41;26.84
78014;BME280;67222;50.182;8.734;2023-04-03T14:50:22;101626.34;;;13.58;30.02
78014;BME280;67222;50.182;8.734;2023-04-03T14:52:50;101631.88;;;13.14;30.12
78014;BME280;67222;50.182;8.734;2023-04-03T14:55:18;101635.31;;;11.91;30.90
78014;BME280;67222;50.182;8.734;2023-04-03T14:57:44;101625.41;;;11.16;33.46
78014;BME280;67222;50.182;8.734;2023-04-03T15:00:18;101634.34;;;11.01;34.25
78014;BME280;67222;50.182;8.734;2023-04-03T15:02:44;101624.22;;;10.65;36.58
78014;BME280;67222;50.182;8.734;2023-04-03T15:05:10;101624.53;;;10.70;34.83
78014;BME280;67222;50.182;8.734;2023-04-03T15:07:39;101626.06;;;10.25;35.35
78014;BME280;67222;50.182;8.734;2023-04-03T15:10:23;101619.91;;;10.00;36.56
78014;BME280;67222;50.182;8.734;2023-04-03T15:12:49;101632.28;;;9.85;35.57
78014;BME280;67222;50.182;8.734;2023-04-03T15:15:16;101629.19;;;9.49;36.29
78014;BME280;67222;50.182;8.734;2023-04-03T15:17:42;101627.31;;;9.41;37.10
78014;BME280;67222;50.182;8.734;2023-04-03T15:20:21;101620.34;;;9.40;37.38
78014;BME280;67222;50.182;8.734;2023-04-03T15:22:46;101624.69;;;9.33;36.76
78014;BME280;67222;50.182;8.734;2023-04-03T15:25:12;101631.50;;;9.52;39.80
78014;BME280;67222;50.182;8.734;2023-04-03T15:27:39;101633.81;;;9.23;35.98
78014;BME280;67222;50.182;8.734;2023-04-03T15:30:08;101644.94;;;9.02;37.76
78014;BME280;67222;50.182;8.734;2023-04-03T15:32:36;101632.13;;;8.97;37.06
78014;BME280;67222;50.182;8.734;2023-04-03T15:35:01;101627.50;;;9.16;39.29
78014;BME280;67222;50.182;8.734;2023-04-03T15:37:27;101626.78;;;8.89;37.28
78014;BME280;67222;50.182;8.734;2023-04-03T15:39:52;101618.63;;;8.74;37.74
78014;BME280;67222;50.182;8.734;2023-04-03T15:42:18;101623.16;;;8.98;40.79
78014;BME280;67222;50.182;8.734;2023-04-03T15:44:43;101624.44;;;8.78;37.46
78014;BME280;67222;50.182;8.734;2023-04-03T15:47:08;101621.06;;;8.68;39.57
78014;BME280;67222;50.182;8.734;2023-04-03T15:49:34;101622.00;;;8.50;38.16
78014;BME280;67222;50.182;8.734;2023-04-03T15:52:00;101629.63;;;8.37;38.75
78014;BME280;67222;50.182;8.734;2023-04-03T15:54:26;101631.28;;;8.38;38.77
78014;BME280;67222;50.182;8.734;2023-04-03T15:56:52;101627.94;;;8.36;39.05
78014;BME280;67222;50.182;8.734;2023-04-03T15:59:18;101622.22;;;8.31;40.79
78014;BME280;67222;50.182;8.734;2023-04-03T16:01:44;101623.13;;;8.06;38.78
78014;BME280;67222;50.182;8.734;2023-04-03T16:04:10;101616.41;;;7.94;38.68
78014;BME280;67222;50.182;8.734;2023-04-03T16:06:36;101621.44;;;7.79;39.71
78014;BME280;67222;50.182;8.734;2023-04-03T16:09:02;101628.28;;;7.81;40.16
78014;BME280;67222;50.182;8.734;2023-04-03T16:11:28;101631.88;;;7.72;37.99
78014;BME280;67222;50.182;8.734;2023-04-03T16:13:54;101628.84;;;7.67;39.60
78014;BME280;67222;50.182;8.734;2023-04-03T16:16:20;101633.78;;;7.62;40.18
78014;BME280;67222;50.182;8.734;2023-04-03T16:18:46;101644.78;;;7.67;41.99
78014;BME280;67222;50.182;8.734;2023-04-03T16:21:12;101635.34;;;7.73;41.82
78014;BME280;67222;50.182;8.734;2023-04-03T16:23:39;101631.81;;;7.64;40.06
78014;BME280;67222;50.182;8.734;2023-04-03T16:26:05;101644.28;;;7.46;40.44
78014;BME280;67222;50.182;8.734;2023-04-03T16:28:30;101639.66;;;7.48;41.51
78014;BME280;67222;50.182;8.734;2023-04-03T16:30:55;101631.91;;;7.37;40.39
78014;BME280;67222;50.182;8.734;2023-04-03T16:33:21;101634.88;;;7.34;41.39
78014;BME280;67222;50.182;8.734;2023-04-03T16:35:48;101635.25;;;7.21;40.41
78014;BME280;67222;50.182;8.734;2023-04-03T16:38:14;101638.59;;;7.23;42.04
78014;BME280;67222;50.182;8.734;2023-04-03T16:40:40;101642.53;;;7.19;43.43
78014;BME280;67222;50.182;8.734;2023-04-03T16:43:05;101621.41;;;7.09;42.15
78014;BME280;67222;50.182;8.734;2023-04-03T16:45:30;101636.91;;;7.04;41.59
78014;BME280;67222;50.182;8.734;2023-04-03T16:47:56;101626.94;;;7.16;44.32
78014;BME280;67222;50.182;8.734;2023-04-03T16:50:21;101638.31;;;7.08;42.41
78014;BME280;67222;50.182;8.734;2023-04-03T16:52:46;101628.28;;;7.02;41.62
78014;BME280;67222;50.182;8.734;2023-04-03T16:55:12;101637.47;;;6.90;43.29
78014;BME280;67222;50.182;8.734;2023-04-03T16:57:37;101635.81;;;6.89;43.77
78014;BME280;67222;50.182;8.734;2023-04-03T17:00:03;101636.69;;;6.80;41.58
78014;BME280;67222;50.182;8.734;2023-04-03T17:02:29;101643.28;;;6.76;43.01
78014;BME280;67222;50.182;8.734;2023-04-03T17:04:55;101646.91;;;6.75;44.54
78014;BME280;67222;50.182;8.734;2023-04-03T17:07:22;101643.88;;;6.70;45.06
78014;BME280;67222;50.182;8.734;2023-04-03T17:09:48;101646.72;;;6.58;44.28
78014;BME280;67222;50.182;8.734;2023-04-03T17:12:13;101653.97;;;6.56;44.09
78014;BME280;67222;50.182;8.734;2023-04-03T17:14:39;101651.91;;;6.50;45.10
78014;BME280;67222;50.182;8.734;2023-04-03T17:17:05;101646.81;;;6.39;43.20
78014;BME280;67222;50.182;8.734;2023-04-03T17:19:30;101649.59;;;6.37;44.15
78014;BME280;67222;50.182;8.734;2023-04-03T17:21:56;101655.91;;;6.27;44.15
78014;BME280;67222;50.182;8.734;2023-04-03T17:24:22;101660.44;;;6.17;43.57
78014;BME280;67222;50.182;8.734;2023-04-03T17:26:48;101660.72;;;6.14;46.40
78014;BME280;67222;50.182;8.734;2023-04-03T17:29:13;101660.97;;;6.20;46.15
78014;BME280;67222;50.182;8.734;2023-04-03T17:31:38;101664.22;;;6.04;44.40
78014;BME280;67222;50.182;8.734;2023-04-03T17:34:04;101665.94;;;5.96;43.27
78014;BME280;67222;50.182;8.734;2023-04-03T17:36:31;101667.59;;;5.97;45.12
78014;BME280;67222;50.182;8.734;2023-04-03T17:38:56;101673.72;;;5.97;44.39
78014;BME280;67222;50.182;8.734;2023-04-03T17:41:22;101675.25;;;5.90;46.86
78014;BME280;67222;50.182;8.734;2023-04-03T17:43:48;101683.34;;;5.79;45.32
78014;BME280;67222;50.182;8.734;2023-04-03T17:46:13;101678.72;;;5.71;47.49
78014;BME280;67222;50.182;8.734;2023-04-03T17:48:40;101678.75;;;5.62;46.47
78014;BME280;67222;50.182;8.734;2023-04-03T17:51:11;101685.44;;;5.46;47.10
78014;BME280;67222;50.182;8.734;2023-04-03T17:53:38;101686.28;;;5.47;47.23
78014;BME280;67222;50.182;8.734;2023-04-03T17:56:15;101695.19;;;5.46;48.18
78014;BME280;67222;50.182;8.734;2023-04-03T17:58:41;101687.41;;;5.44;48.24
78014;BME280;67222;50.182;8.734;2023-04-03T18:01:11;101692.97;;;5.41;49.36
78014;BME280;67222;50.182;8.734;2023-04-03T18:03:36;101693.66;;;5.34;49.21
78014;BME280;67222;50.182;8.734;2023-04-03T18:06:03;101693.66;;;5.24;49.69
78014;BME280;67222;50.182;8.734;2023-04-03T18:08:34;101690.19;;;5.24;50.46
78014;BME280;67222;50.182;8.734;2023-04-03T18:11:00;101696.69;;;5.10;47.31
78014;BME280;67222;50.182;8.734;2023-04-03T18:13:25;101694.47;;;5.05;49.35
78014;BME280;67222;50.182;8.734;2023-04-03T18:15:51;101696.09;;;4.97;48.95
78014;BME280;67222;50.182;8.734;2023-04-03T18:18:16;101699.28;;;4.91;49.10
78014;BME280;67222;50.182;8.734;2023-04-03T18:20:42;101694.56;;;4.94;51.11
78014;BME280;67222;50.182;8.734;2023-04-03T18:23:07;101702.91;;;4.90;49.15
78014;BME280;67222;50.182;8.734;2023-04-03T18:25:33;101703.56;;;4.82;48.14
78014;BME280;67222;50.182;8.734;2023-04-03T18:27:59;101694.78;;;4.72;47.81
78014;BME280;67222;50.182;8.734;2023-04-03T18:30:30;101701.63;;;4.74;50.13
78014;BME280;67222;50.182;8.734;2023-04-03T18:32:55;101702.44;;;4.75;48.24
78014;BME280;67222;50.182;8.734;2023-04-03T18:35:21;101712.31;;;4.73;49.06
78014;BME280;67222;50.182;8.734;2023-04-03T18:37:46;101705.91;;;4.66;49.91
78014;BME280;67222;50.182;8.734;2023-04-03T18:40:11;101705.19;;;4.64;49.61
78014;BME280;67222;50.182;8.734;2023-04-03T18:42:39;101712.53;;;4.60;49.80
78014;BME280;67222;50.182;8.734;2023-04-03T18:45:05;101699.69;;;4.46;50.55
78014;BME280;67222;50.182;8.734;2023-04-03T18:47:31;101712.81;;;4.57;49.18
78014;BME280;67222;50.182;8.734;2023-04-03T18:49:57;101705.56;;;4.49;49.84
78014;BME280;67222;50.182;8.734;2023-04-03T18:52:23;101712.06;;;4.45;48.84
78014;BME280;67222;50.182;8.734;2023-04-03T18:54:50;101710.53;;;4.43;49.12
78014;BME280;67222;50.182;8.734;2023-04-03T18:57:15;101711.19;;;4.35;48.35
78014;BME280;67222;50.182;8.734;2023-04-03T18:59:41;101713.84;;;4.35;48.79
78014;BME280;67222;50.182;8.734;2023-04-03T19:02:07;101724.59;;;4.22;49.66
78014;BME280;67222;50.182;8.734;2023-04-03T19:04:33;101723.25;;;4.28;52.50
78014;BME280;67222;50.182;8.734;2023-04-03T19:06:59;101732.06;;;4.17;51.23